createdAt,value
2023-02-27T00:02:04.206Z,11.20
2023-02-27T00:04:31.529Z,10.73
2023-02-27T00:06:58.751Z,12.43
2023-02-27T00:09:26.136Z,12.57
2023-02-27T00:11:53.384Z,12.57
2023-02-27T00:14:20.797Z,12.70
2023-02-27T00:16:48.192Z,13.33
2023-02-27T00:19:15.449Z,12.53
2023-02-27T00:21:44.729Z,14.03
2023-02-27T00:24:11.962Z,12.40
2023-02-27T00:26:39.160Z,13.40
2023-02-27T00:29:07.291Z,12.27
2023-02-27T00:31:34.838Z,13.17
2023-02-27T00:34:02.167Z,12.37
2023-02-27T00:36:29.453Z,12.70
2023-02-27T00:38:58.117Z,13.93
2023-02-27T00:41:26.366Z,13.70
2023-02-27T00:43:53.904Z,13.43
2023-02-27T00:46:21.147Z,13.70
2023-02-27T00:48:48.502Z,14.77
2023-02-27T00:51:16.024Z,13.90
2023-02-27T00:53:43.213Z,14.40
2023-02-27T00:56:12.521Z,13.80
2023-02-27T00:58:39.876Z,13.20
2023-02-27T01:01:07.167Z,14.67
2023-02-27T01:03:34.431Z,13.83
2023-02-27T01:06:01.921Z,15.33
2023-02-27T01:08:29.317Z,14.43
2023-02-27T01:10:57.173Z,14.40
2023-02-27T01:13:24.426Z,15.10
2023-02-27T01:15:53.156Z,12.70
2023-02-27T01:18:20.371Z,15.37
2023-02-27T01:20:55.765Z,13.00
2023-02-27T01:23:23.833Z,15.23
2023-02-27T01:25:51.100Z,14.63
2023-02-27T01:28:18.531Z,13.73
2023-02-27T01:30:45.865Z,13.63
2023-02-27T01:33:15.545Z,13.97
2023-02-27T01:35:42.759Z,12.33
2023-02-27T01:38:09.995Z,12.73
2023-02-27T01:40:42.528Z,14.03
2023-02-27T01:43:20.023Z,12.17
2023-02-27T01:45:49.007Z,11.50
2023-02-27T01:48:29.102Z,12.53
2023-02-27T01:51:13.889Z,11.45
2023-02-27T01:53:45.846Z,11.53
2023-02-27T01:56:32.351Z,11.68
2023-02-27T01:59:07.722Z,12.50
2023-02-27T02:01:36.159Z,11.17
2023-02-27T02:04:28.243Z,10.40
2023-02-27T02:07:06.135Z,10.27
2023-02-27T02:09:40.467Z,9.77
2023-02-27T02:12:08.584Z,8.77
2023-02-27T02:14:35.856Z,9.30
2023-02-27T02:17:32.664Z,8.30
2023-02-27T02:20:35.144Z,8.30
2023-02-27T02:23:11.462Z,9.17
2023-02-27T02:26:29.272Z,8.57
2023-02-27T02:29:59.845Z,8.83
2023-02-27T02:33:15.355Z,8.38
2023-02-27T02:36:32.354Z,7.80
2023-02-27T02:39:33.401Z,7.40
2023-02-27T02:42:37.429Z,6.83
2023-02-27T02:45:48.576Z,6.07
2023-02-27T02:48:40.759Z,5.93
2023-02-27T02:51:30.632Z,5.40
2023-02-27T02:54:20.328Z,5.40
2023-02-27T02:57:02.365Z,5.07
2023-02-27T02:59:40.165Z,6.43
2023-02-27T03:02:17.103Z,5.67
2023-02-27T03:04:54.063Z,5.00
2023-02-27T03:07:43.292Z,5.17
2023-02-27T03:10:21.356Z,4.67
2023-02-27T03:13:14.408Z,5.67
2023-02-27T03:15:54.648Z,5.67
2023-02-27T03:18:35.015Z,5.85
2023-02-27T03:21:10.653Z,4.93
2023-02-27T03:23:48.028Z,5.60
2023-02-27T03:26:21.901Z,5.47
2023-02-27T03:29:06.644Z,5.23
2023-02-27T03:31:58.552Z,3.50
2023-02-27T03:34:38.167Z,4.30
2023-02-27T03:37:35.657Z,3.50
2023-02-27T03:40:33.500Z,3.67
2023-02-27T03:43:27.280Z,4.13
2023-02-27T03:46:16.766Z,3.63
2023-02-27T03:48:46.541Z,3.90
2023-02-27T03:51:21.073Z,4.13
2023-02-27T03:53:57.395Z,3.87
2023-02-27T03:56:32.753Z,4.17
2023-02-27T03:59:00.319Z,3.10
2023-02-27T04:01:28.344Z,3.63
2023-02-27T04:04:17.272Z,2.57
2023-02-27T04:07:53.101Z,2.83
2023-02-27T04:11:09.196Z,2.97
2023-02-27T04:13:54.416Z,3.47
2023-02-27T04:17:02.898Z,3.17
2023-02-27T04:19:41.975Z,2.77
2023-02-27T04:22:18.291Z,3.10
2023-02-27T04:24:53.800Z,3.50
2023-02-27T04:27:42.734Z,3.33
2023-02-27T04:30:30.267Z,2.33
2023-02-27T04:33:42.235Z,2.47
2023-02-27T04:36:40.593Z,2.10
2023-02-27T04:39:18.049Z,2.17
2023-02-27T04:42:03.533Z,1.80
2023-02-27T04:44:36.287Z,2.17
2023-02-27T04:47:07.666Z,2.00
2023-02-27T04:49:46.688Z,2.20
2023-02-27T04:52:25.729Z,2.37
2023-02-27T04:55:11.359Z,2.63
2023-02-27T04:57:48.442Z,2.70
2023-02-27T05:00:18.764Z,1.87
2023-02-27T05:02:52.463Z,2.00
2023-02-27T05:05:30.215Z,2.50
2023-02-27T05:08:37.901Z,2.80
2023-02-27T05:11:33.794Z,2.30
2023-02-27T05:14:21.807Z,2.93
2023-02-27T05:17:08.716Z,2.70
2023-02-27T05:19:41.295Z,2.77
2023-02-27T05:22:34.931Z,2.37
2023-02-27T05:25:37.788Z,2.93
2023-02-27T05:28:33.920Z,3.30
2023-02-27T05:31:21.099Z,3.83
2023-02-27T05:33:56.997Z,3.10
2023-02-27T05:36:57.693Z,3.47
2023-02-27T05:39:30.459Z,3.15
2023-02-27T05:42:14.129Z,3.50
2023-02-27T05:44:50.559Z,3.27
2023-02-27T05:47:23.689Z,3.70
2023-02-27T05:49:59.332Z,4.77
2023-02-27T05:52:28.369Z,4.63
2023-02-27T05:55:21.054Z,4.57
2023-02-27T05:58:07.447Z,3.90
2023-02-27T06:00:53.768Z,3.73
2023-02-27T06:03:21.908Z,4.33
2023-02-27T06:05:55.033Z,4.77
2023-02-27T06:08:23.011Z,5.63
2023-02-27T06:10:50.520Z,6.00
2023-02-27T06:13:18.580Z,4.93
2023-02-27T06:15:46.255Z,5.17
2023-02-27T06:18:15.300Z,5.67
2023-02-27T06:20:44.512Z,4.60
2023-02-27T06:23:12.648Z,5.57
2023-02-27T06:25:42.282Z,5.87
2023-02-27T06:28:10.757Z,6.20
2023-02-27T06:30:38.722Z,5.67
2023-02-27T06:33:05.984Z,5.37
2023-02-27T06:35:33.358Z,5.17
2023-02-27T06:38:00.588Z,5.43
2023-02-27T06:40:27.965Z,5.30
2023-02-27T06:42:55.168Z,5.70
2023-02-27T06:45:24.274Z,5.07
2023-02-27T06:47:51.563Z,5.93
2023-02-27T06:50:18.833Z,6.17
2023-02-27T06:52:46.118Z,6.33
2023-02-27T06:55:13.495Z,5.17
2023-02-27T06:57:40.714Z,6.13
2023-02-27T07:00:11.884Z,5.67
2023-02-27T07:02:39.770Z,5.47
2023-02-27T07:05:08.489Z,6.00
2023-02-27T07:07:37.958Z,6.70
2023-02-27T07:10:15.907Z,7.20
2023-02-27T07:12:43.198Z,6.30
2023-02-27T07:15:11.128Z,5.53
2023-02-27T07:17:38.422Z,7.40
2023-02-27T07:20:08.961Z,6.67
2023-02-27T07:22:37.689Z,6.90
2023-02-27T07:25:05.564Z,6.70
2023-02-27T07:27:32.957Z,6.50
2023-02-27T07:30:01.167Z,5.40
2023-02-27T07:32:28.800Z,6.50
2023-02-27T07:34:55.991Z,4.47
2023-02-27T07:37:23.241Z,4.50
2023-02-27T07:39:50.732Z,4.20
2023-02-27T07:42:18.102Z,6.43
2023-02-27T07:44:45.293Z,3.70
2023-02-27T07:47:12.775Z,3.80
2023-02-27T07:49:39.950Z,4.60
2023-02-27T07:52:08.410Z,3.10
2023-02-27T07:54:37.639Z,5.60
2023-02-27T07:57:05.958Z,3.00
2023-02-27T07:59:33.357Z,3.97
2023-02-27T08:02:00.625Z,3.80
2023-02-27T08:04:27.997Z,3.13
2023-02-27T08:06:55.270Z,4.43
2023-02-27T08:09:22.463Z,4.70
2023-02-27T08:11:49.738Z,3.73
2023-02-27T08:14:16.971Z,3.57
2023-02-27T08:16:44.154Z,3.67
2023-02-27T08:19:14.094Z,4.30
2023-02-27T08:21:41.775Z,3.08
2023-02-27T08:24:09.016Z,3.77
2023-02-27T08:26:36.661Z,4.33
2023-02-27T08:29:04.020Z,4.57
2023-02-27T08:31:31.408Z,4.90
2023-02-27T08:34:09.532Z,4.57
2023-02-27T08:36:38.264Z,4.60
2023-02-27T08:39:09.550Z,5.70
2023-02-27T08:41:37.109Z,4.03
2023-02-27T08:44:04.641Z,5.47
2023-02-27T08:46:32.164Z,4.33
2023-02-27T08:48:59.343Z,4.50
2023-02-27T08:51:26.920Z,3.77
2023-02-27T08:53:58.898Z,3.67
2023-02-27T08:56:27.517Z,4.70
2023-02-27T08:58:56.090Z,4.30
2023-02-27T09:01:24.033Z,3.33
2023-02-27T09:03:51.456Z,3.27
2023-02-27T09:06:18.609Z,3.88
2023-02-27T09:08:45.855Z,3.95
2023-02-27T09:11:13.175Z,3.00
2023-02-27T09:13:40.381Z,3.58
2023-02-27T09:16:07.994Z,3.40
2023-02-27T09:18:35.336Z,1.85
2023-02-27T09:21:03.466Z,3.42
2023-02-27T09:23:30.724Z,2.22
2023-02-27T09:25:57.913Z,2.78
2023-02-27T09:28:25.197Z,2.22
2023-02-27T09:30:52.904Z,1.80
2023-02-27T09:33:20.102Z,0.93
2023-02-27T09:35:47.400Z,1.10
2023-02-27T09:38:14.569Z,1.40
2023-02-27T09:40:44.716Z,0.75
2023-02-27T09:43:21.182Z,1.00
2023-02-27T09:45:54.838Z,1.50
2023-02-27T09:48:43.712Z,1.05
2023-02-27T09:51:11.042Z,2.20
2023-02-27T09:53:49.667Z,1.77
2023-02-27T09:56:42.440Z,1.20
2023-02-27T09:59:25.522Z,1.05
2023-02-27T10:02:09.191Z,1.42
2023-02-27T10:04:54.965Z,0.93
2023-02-27T10:08:01.003Z,1.02
2023-02-27T10:11:05.023Z,0.70
2023-02-27T10:14:02.315Z,0.65
2023-02-27T10:16:32.436Z,0.68
2023-02-27T10:19:10.850Z,0.90
2023-02-27T10:21:42.914Z,0.98
2023-02-27T10:24:27.518Z,0.80
2023-02-27T10:26:58.131Z,0.80
2023-02-27T10:29:36.977Z,0.98
2023-02-27T10:32:11.967Z,0.98
2023-02-27T10:34:42.353Z,1.20
2023-02-27T10:37:16.464Z,1.27
2023-02-27T10:39:49.931Z,1.00
2023-02-27T10:42:18.466Z,0.90
2023-02-27T10:44:46.309Z,1.10
2023-02-27T10:47:16.752Z,1.00
2023-02-27T10:49:44.567Z,0.75
2023-02-27T10:52:17.892Z,1.10
2023-02-27T10:54:47.082Z,1.15
2023-02-27T10:57:37.072Z,0.82
2023-02-27T11:00:23.361Z,1.00
2023-02-27T11:02:54.888Z,0.40
2023-02-27T11:05:31.112Z,0.98
2023-02-27T11:08:23.927Z,0.77
2023-02-27T11:11:27.652Z,0.73
2023-02-27T11:14:14.921Z,0.98
2023-02-27T11:16:55.890Z,0.80
2023-02-27T11:19:39.780Z,0.95
2023-02-27T11:22:08.373Z,1.75
2023-02-27T11:24:36.066Z,1.00
2023-02-27T11:27:29.523Z,2.20
2023-02-27T11:30:31.859Z,2.35
2023-02-27T11:33:01.659Z,2.22
2023-02-27T11:35:36.978Z,2.15
2023-02-27T11:38:18.815Z,1.90
2023-02-27T11:40:58.056Z,2.30
2023-02-27T11:43:33.338Z,2.20
2023-02-27T11:46:24.085Z,1.92
2023-02-27T11:49:14.571Z,2.30
2023-02-27T11:52:33.371Z,1.55
2023-02-27T11:55:03.978Z,2.25
2023-02-27T11:57:38.550Z,1.65
2023-02-27T12:00:33.675Z,2.35
2023-02-27T12:03:19.757Z,2.30
2023-02-27T12:05:53.754Z,1.98
2023-02-27T12:08:44.279Z,2.15
2023-02-27T12:11:29.923Z,2.70
2023-02-27T12:14:11.611Z,1.65
2023-02-27T12:16:46.560Z,1.77
2023-02-27T12:19:16.710Z,1.67
2023-02-27T12:21:54.210Z,1.42
2023-02-27T12:24:49.562Z,1.20
2023-02-27T12:27:44.151Z,1.48
2023-02-27T12:30:26.979Z,2.05
2023-02-27T12:33:25.209Z,1.80
2023-02-27T12:36:02.500Z,2.25
2023-02-27T12:38:30.195Z,2.25
2023-02-27T12:41:41.727Z,2.00
2023-02-27T12:44:14.818Z,1.55
2023-02-27T12:47:20.307Z,1.98
2023-02-27T12:50:15.904Z,1.65
2023-02-27T12:53:40.788Z,1.60
2023-02-27T12:56:17.877Z,1.27
2023-02-27T12:59:29.807Z,1.48
2023-02-27T13:02:37.532Z,1.35
2023-02-27T13:05:49.257Z,2.03
2023-02-27T13:08:59.944Z,1.88
2023-02-27T13:12:11.600Z,2.13
2023-02-27T13:15:06.268Z,1.92
2023-02-27T13:17:49.946Z,2.35
2023-02-27T13:20:25.768Z,2.10
2023-02-27T13:23:01.476Z,2.30
2023-02-27T13:25:30.802Z,2.38
2023-02-27T13:28:03.778Z,2.22
2023-02-27T13:30:41.445Z,2.33
2023-02-27T13:33:25.290Z,2.67
2023-02-27T13:36:19.112Z,2.00
2023-02-27T13:38:55.372Z,1.88
2023-02-27T13:41:25.631Z,2.00
2023-02-27T13:44:01.376Z,1.50
2023-02-27T13:46:33.891Z,1.60
2023-02-27T13:49:20.107Z,1.58
2023-02-27T13:51:56.814Z,1.30
2023-02-27T13:54:40.008Z,1.67
2023-02-27T13:57:24.378Z,1.42
2023-02-27T14:00:02.208Z,1.50
2023-02-27T14:02:59.389Z,1.70
2023-02-27T14:05:41.415Z,1.30
2023-02-27T14:08:25.922Z,1.60
2023-02-27T14:11:01.285Z,1.60
2023-02-27T14:13:50.341Z,2.38
2023-02-27T14:16:37.424Z,1.75
2023-02-27T14:19:24.453Z,1.63
2023-02-27T14:21:56.452Z,1.75
2023-02-27T14:24:49.625Z,2.90
2023-02-27T14:27:33.352Z,2.83
2023-02-27T14:30:11.602Z,3.20
2023-02-27T14:32:39.234Z,3.30
2023-02-27T14:35:07.525Z,3.42
2023-02-27T14:37:36.923Z,3.15
2023-02-27T14:40:06.448Z,2.72
2023-02-27T14:42:50.564Z,3.13
2023-02-27T14:45:25.521Z,2.63
2023-02-27T14:47:53.444Z,3.05
2023-02-27T14:50:35.183Z,3.50
2023-02-27T14:53:06.983Z,2.37
2023-02-27T14:55:36.853Z,3.40
2023-02-27T14:58:21.920Z,3.22
2023-02-27T15:00:58.731Z,3.43
2023-02-27T15:03:33.151Z,2.60
2023-02-27T15:06:04.100Z,3.20
2023-02-27T15:08:40.565Z,2.97
2023-02-27T15:11:14.189Z,3.17
2023-02-27T15:13:44.596Z,2.60
2023-02-27T15:16:23.876Z,3.00
2023-02-27T15:18:56.031Z,2.77
2023-02-27T15:21:27.044Z,2.60
2023-02-27T15:24:03.941Z,2.30
2023-02-27T15:26:40.614Z,3.00
2023-02-27T15:29:19.520Z,2.17
2023-02-27T15:31:46.957Z,2.17
2023-02-27T15:34:15.699Z,2.17
2023-02-27T15:36:57.477Z,3.07
2023-02-27T15:39:28.865Z,2.40
2023-02-27T15:42:03.429Z,3.37
2023-02-27T15:44:42.201Z,2.97
2023-02-27T15:47:18.574Z,2.73
2023-02-27T15:49:47.450Z,3.03
2023-02-27T15:52:23.010Z,3.00
2023-02-27T15:55:12.437Z,3.50
2023-02-27T15:57:40.921Z,3.70
2023-02-27T16:00:16.600Z,3.83
2023-02-27T16:02:52.913Z,4.00
2023-02-27T16:05:39.195Z,3.93
2023-02-27T16:08:07.355Z,4.77
2023-02-27T16:10:43.708Z,4.40
2023-02-27T16:13:37.208Z,3.47
2023-02-27T16:16:30.662Z,4.07
2023-02-27T16:19:03.471Z,4.67
2023-02-27T16:21:33.900Z,4.67
2023-02-27T16:24:22.036Z,3.70
2023-02-27T16:26:53.183Z,5.80
2023-02-27T16:29:23.833Z,5.10
2023-02-27T16:34:45.735Z,3.67
2023-02-27T16:37:39.739Z,4.53
2023-02-27T16:40:20.120Z,10.67
2023-02-27T16:42:48.577Z,4.15
2023-02-27T16:45:28.669Z,3.60
2023-02-27T16:47:59.662Z,4.13
2023-02-27T16:50:40.671Z,4.07
2023-02-27T16:53:09.005Z,3.40
2023-02-27T16:55:41.075Z,3.77
2023-02-27T16:58:15.662Z,3.53
2023-02-27T17:00:43.465Z,3.40
2023-02-27T17:03:10.937Z,3.57
2023-02-27T17:05:38.230Z,4.67
2023-02-27T17:08:05.797Z,3.33
2023-02-27T17:10:33.641Z,3.53
2023-02-27T17:13:00.829Z,4.47
2023-02-27T17:15:29.211Z,4.40
2023-02-27T17:17:56.520Z,5.33
2023-02-27T17:20:26.071Z,4.90
2023-02-27T17:22:53.313Z,4.73
2023-02-27T17:25:20.641Z,5.10
2023-02-27T17:27:48.008Z,4.83
2023-02-27T17:30:15.881Z,4.17
2023-02-27T17:32:43.425Z,4.50
2023-02-27T17:35:11.511Z,5.40
2023-02-27T17:37:39.087Z,4.63
2023-02-27T17:40:08.362Z,3.40
2023-02-27T17:42:39.521Z,3.93
2023-02-27T17:45:08.776Z,3.43
2023-02-27T17:47:36.325Z,3.37
2023-02-27T17:50:05.444Z,3.30
2023-02-27T17:52:35.341Z,3.60
2023-02-27T17:55:03.679Z,3.80
2023-02-27T17:57:31.042Z,3.93
2023-02-27T17:59:58.338Z,3.50
2023-02-27T18:02:25.746Z,3.90
2023-02-27T18:04:53.247Z,3.37
2023-02-27T18:07:20.570Z,4.03
2023-02-27T18:09:48.064Z,3.87
2023-02-27T18:12:15.390Z,4.03
2023-02-27T18:14:42.671Z,3.83
2023-02-27T18:17:12.687Z,3.97
2023-02-27T18:19:43.790Z,3.75
2023-02-27T18:22:15.193Z,4.13
2023-02-27T18:24:42.462Z,4.87
2023-02-27T18:27:09.863Z,5.33
2023-02-27T18:29:37.236Z,4.77
2023-02-27T18:32:07.205Z,6.70
2023-02-27T18:34:34.709Z,5.75
2023-02-27T18:37:01.953Z,5.30
2023-02-27T18:39:29.321Z,5.23
2023-02-27T18:41:56.568Z,5.80
2023-02-27T18:44:24.354Z,7.67
2023-02-27T18:46:52.034Z,5.23
2023-02-27T18:49:19.526Z,5.93
2023-02-27T18:51:46.838Z,6.30
2023-02-27T18:54:15.379Z,5.90
2023-02-27T18:56:42.706Z,7.07
2023-02-27T18:59:12.129Z,6.77
2023-02-27T19:01:39.570Z,7.37
2023-02-27T19:04:09.619Z,6.37
2023-02-27T19:06:42.303Z,7.53
2023-02-27T19:09:16.180Z,7.83
2023-02-27T19:11:46.888Z,6.80
2023-02-27T19:14:16.094Z,6.85
2023-02-27T19:16:44.302Z,7.90
2023-02-27T19:19:11.974Z,7.63
2023-02-27T19:21:39.735Z,8.07
2023-02-27T19:24:08.246Z,8.07
2023-02-27T19:26:36.086Z,8.17
2023-02-27T19:29:04.160Z,7.30
2023-02-27T19:31:31.978Z,7.47
2023-02-27T19:34:00.231Z,7.57
2023-02-27T19:36:30.604Z,7.80
2023-02-27T19:41:26.273Z,7.70
2023-02-27T19:43:55.936Z,8.63
2023-02-27T19:46:28.338Z,7.87
2023-02-27T19:49:01.016Z,8.97
2023-02-27T19:51:29.104Z,7.97
2023-02-27T19:53:56.963Z,6.30
2023-02-27T19:56:28.145Z,8.13
2023-02-27T19:58:56.263Z,6.63
2023-02-27T20:01:33.041Z,7.37
2023-02-27T20:04:02.139Z,7.30
2023-02-27T20:06:32.224Z,5.50
2023-02-27T20:09:00.446Z,6.55
2023-02-27T20:11:31.204Z,6.07
2023-02-27T20:16:29.003Z,6.60
2023-02-27T20:18:57.280Z,6.50
2023-02-27T20:21:27.084Z,7.67
2023-02-27T20:23:55.608Z,7.85
2023-02-27T20:26:30.171Z,6.20
2023-02-27T20:29:16.330Z,5.63
2023-02-27T20:31:46.486Z,5.50
2023-02-27T20:34:17.235Z,5.72
2023-02-27T20:36:44.738Z,6.60
2023-02-27T20:39:12.856Z,5.97
2023-02-27T20:41:40.458Z,5.37
2023-02-27T20:44:09.057Z,7.30
2023-02-27T20:46:38.235Z,7.63
2023-02-27T20:49:06.674Z,6.67
2023-02-27T20:51:38.978Z,6.50
2023-02-27T20:54:11.840Z,5.80
2023-02-27T20:56:41.607Z,6.17
2023-02-27T20:59:16.866Z,5.50
2023-02-27T21:01:51.445Z,6.40
2023-02-27T21:04:43.229Z,6.63
2023-02-27T21:07:13.549Z,6.47
2023-02-27T21:09:41.422Z,6.68
2023-02-27T21:12:09.625Z,7.07
2023-02-27T21:14:37.481Z,6.27
2023-02-27T21:17:06.139Z,6.77
2023-02-27T21:19:33.556Z,6.77
2023-02-27T21:22:00.970Z,7.27
2023-02-27T21:24:32.164Z,8.13
2023-02-27T21:27:00.190Z,7.23
2023-02-27T21:29:27.546Z,7.20
2023-02-27T21:31:55.199Z,6.70
2023-02-27T21:34:26.913Z,7.10
2023-02-27T21:36:55.624Z,6.27
2023-02-27T21:39:27.088Z,7.30
2023-02-27T21:41:55.172Z,7.10
2023-02-27T21:44:26.477Z,7.30
2023-02-27T21:46:54.510Z,6.83
2023-02-27T21:49:28.305Z,7.07
2023-02-27T21:51:56.143Z,6.70
2023-02-27T21:54:23.859Z,7.10
2023-02-27T21:56:51.269Z,6.77
2023-02-27T21:59:19.413Z,7.30
2023-02-27T22:01:48.339Z,6.10
2023-02-27T22:04:19.217Z,7.57
2023-02-27T22:09:15.156Z,6.80
2023-02-27T22:11:42.778Z,6.87
2023-02-27T22:14:11.922Z,6.40
2023-02-27T22:16:39.863Z,7.07
2023-02-27T22:19:13.860Z,6.23
2023-02-27T22:21:41.611Z,6.37
2023-02-27T22:24:09.160Z,6.67
2023-02-27T22:26:37.470Z,6.43
2023-02-27T22:29:06.873Z,6.30
2023-02-27T22:31:37.915Z,6.43
2023-02-27T22:34:12.394Z,7.03
2023-02-27T22:36:41.730Z,6.77
2023-02-27T22:39:09.159Z,6.53
2023-02-27T22:41:40.215Z,6.80
2023-02-27T22:44:12.341Z,7.17
2023-02-27T22:46:44.424Z,8.53
2023-02-27T22:49:16.128Z,8.20
2023-02-27T22:51:44.449Z,8.80
2023-02-27T22:54:14.891Z,7.77
2023-02-27T22:56:43.441Z,7.78
2023-02-27T22:59:11.352Z,8.83
2023-02-27T23:01:38.985Z,7.33
2023-02-27T23:04:09.051Z,7.43
2023-02-27T23:06:39.873Z,7.30
2023-02-27T23:11:36.839Z,7.47
2023-02-27T23:14:04.697Z,7.67
2023-02-27T23:16:32.219Z,6.87
2023-02-27T23:19:00.919Z,8.47
2023-02-27T23:21:35.110Z,9.07
2023-02-27T23:24:08.754Z,8.03
2023-02-27T23:26:42.320Z,8.63
2023-02-27T23:29:10.398Z,8.20
2023-02-27T23:31:38.449Z,7.63
2023-02-27T23:34:07.026Z,8.57
2023-02-27T23:36:36.459Z,9.63
2023-02-27T23:39:05.697Z,8.23
2023-02-27T23:41:34.196Z,8.03
2023-02-27T23:44:01.929Z,9.83
2023-02-27T23:46:30.681Z,10.10
2023-02-27T23:49:02.051Z,9.37
2023-02-27T23:51:30.899Z,9.83
2023-02-27T23:53:59.258Z,9.73
2023-02-27T23:56:29.811Z,8.83
2023-02-27T23:59:01.539Z,9.63
